sensor_id;sensor_type;location;lat;lon;timestamp;pressure;altitude;pressure_sealevel;temperature;humidity
16094;BME280;8151;47.824;12.092;2023-10-19T00:00:54;94857.28;;;9.75;80.73
16094;BME280;8151;47.824;12.092;2023-10-19T00:03:24;94855.47;;;9.82;80.25
16094;BME280;8151;47.824;12.092;2023-10-19T00:05:57;94855.09;;;9.85;80.24
16094;BME280;8151;47.824;12.092;2023-10-19T00:08:24;94851.22;;;9.81;80.10
16094;BME280;8151;47.824;12.092;2023-10-19T00:11:03;94856.91;;;9.78;80.08
16094;BME280;8151;47.824;12.092;2023-10-19T00:13:35;94846.72;;;9.68;80.69
16094;BME280;8151;47.824;12.092;2023-10-19T00:16:06;94844.69;;;9.63;80.33
16094;BME280;8151;47.824;12.092;2023-10-19T00:18:39;94852.38;;;9.65;80.28
16094;BME280;8151;47.824;12.092;2023-10-19T00:21:11;94836.97;;;9.69;80.88
16094;BME280;8151;47.824;12.092;2023-10-19T00:23:47;94838.38;;;9.71;80.45
16094;BME280;8151;47.824;12.092;2023-10-19T00:26:15;94844.47;;;9.65;80.02
16094;BME280;8151;47.824;12.092;2023-10-19T00:28:46;94834.13;;;9.63;80.47
16094;BME280;8151;47.824;12.092;2023-10-19T00:31:16;94843.84;;;9.63;80.27
16094;BME280;8151;47.824;12.092;2023-10-19T00:33:47;94840.84;;;9.66;80.55
16094;BME280;8151;47.824;12.092;2023-10-19T00:36:20;94830.06;;;9.68;80.65
16094;BME280;8151;47.824;12.092;2023-10-19T00:38:50;94826.22;;;9.70;79.84
16094;BME280;8151;47.824;12.092;2023-10-19T00:41:22;94828.03;;;9.70;80.33
16094;BME280;8151;47.824;12.092;2023-10-19T00:43:55;94824.19;;;9.72;79.99
16094;BME280;8151;47.824;12.092;2023-10-19T00:46:32;94819.69;;;9.73;79.35
16094;BME280;8151;47.824;12.092;2023-10-19T00:49:05;94822.53;;;9.71;80.04
16094;BME280;8151;47.824;12.092;2023-10-19T00:51:37;94823.56;;;9.70;79.54
16094;BME280;8151;47.824;12.092;2023-10-19T00:54:12;94822.75;;;9.70;80.33
16094;BME280;8151;47.824;12.092;2023-10-19T00:56:45;94819.50;;;9.68;79.55
16094;BME280;8151;47.824;12.092;2023-10-19T00:59:18;94812.56;;;9.53;80.16
16094;BME280;8151;47.824;12.092;2023-10-19T01:01:51;94819.69;;;9.53;80.40
16094;BME280;8151;47.824;12.092;2023-10-19T01:04:21;94811.38;;;9.56;79.90
16094;BME280;8151;47.824;12.092;2023-10-19T01:06:52;94812.97;;;9.50;80.31
16094;BME280;8151;47.824;12.092;2023-10-19T01:09:32;94811.94;;;9.51;79.74
16094;BME280;8151;47.824;12.092;2023-10-19T01:12:04;94803.03;;;9.52;80.32
16094;BME280;8151;47.824;12.092;2023-10-19T01:15:04;94806.69;;;9.58;79.94
16094;BME280;8151;47.824;12.092;2023-10-19T01:17:36;94799.59;;;9.58;79.98
16094;BME280;8151;47.824;12.092;2023-10-19T01:20:08;94790.25;;;9.56;79.97
16094;BME280;8151;47.824;12.092;2023-10-19T01:22:51;94791.44;;;9.53;80.03
16094;BME280;8151;47.824;12.092;2023-10-19T01:25:48;94786.75;;;9.42;80.34
16094;BME280;8151;47.824;12.092;2023-10-19T01:28:27;94784.09;;;9.42;79.84
16094;BME280;8151;47.824;12.092;2023-10-19T01:31:11;94794.88;;;9.47;79.71
16094;BME280;8151;47.824;12.092;2023-10-19T01:33:43;94793.66;;;9.43;79.91
16094;BME280;8151;47.824;12.092;2023-10-19T01:36:12;94792.03;;;9.42;80.47
16094;BME280;8151;47.824;12.092;2023-10-19T01:38:45;94790.00;;;9.37;79.96
16094;BME280;8151;47.824;12.092;2023-10-19T01:41:15;94784.28;;;9.34;79.86
16094;BME280;8151;47.824;12.092;2023-10-19T01:43:47;94786.50;;;9.30;80.26
16094;BME280;8151;47.824;12.092;2023-10-19T01:46:22;94785.91;;;9.28;80.33
16094;BME280;8151;47.824;12.092;2023-10-19T01:48:52;94781.66;;;9.34;80.40
16094;BME280;8151;47.824;12.092;2023-10-19T01:51:24;94778.81;;;9.29;80.13
16094;BME280;8151;47.824;12.092;2023-10-19T01:53:55;94783.69;;;9.32;80.48
16094;BME280;8151;47.824;12.092;2023-10-19T01:56:24;94769.66;;;9.24;80.38
16094;BME280;8151;47.824;12.092;2023-10-19T01:58:52;94770.47;;;9.25;80.99
16094;BME280;8151;47.824;12.092;2023-10-19T02:01:22;94766.19;;;9.24;80.56
16094;BME280;8151;47.824;12.092;2023-10-19T02:03:59;94773.88;;;9.19;80.52
16094;BME280;8151;47.824;12.092;2023-10-19T02:06:29;94769.84;;;9.16;80.85
16094;BME280;8151;47.824;12.092;2023-10-19T02:09:05;94769.22;;;9.14;80.52
16094;BME280;8151;47.824;12.092;2023-10-19T02:11:50;94772.47;;;9.16;80.86
16094;BME280;8151;47.824;12.092;2023-10-19T02:14:20;94768.22;;;9.22;81.18
16094;BME280;8151;47.824;12.092;2023-10-19T02:16:48;94775.34;;;9.21;80.81
16094;BME280;8151;47.824;12.092;2023-10-19T02:19:20;94765.34;;;9.10;81.01
16094;BME280;8151;47.824;12.092;2023-10-19T02:21:47;94782.19;;;9.09;81.46
16094;BME280;8151;47.824;12.092;2023-10-19T02:24:18;94790.94;;;9.16;81.34
16094;BME280;8151;47.824;12.092;2023-10-19T02:26:50;94785.47;;;9.18;80.83
16094;BME280;8151;47.824;12.092;2023-10-19T02:29:19;94797.06;;;9.23;81.02
16094;BME280;8151;47.824;12.092;2023-10-19T02:31:48;94801.72;;;9.28;80.93
16094;BME280;8151;47.824;12.092;2023-10-19T02:34:16;94802.75;;;9.34;80.37
16094;BME280;8151;47.824;12.092;2023-10-19T02:36:46;94797.06;;;9.30;80.90
16094;BME280;8151;47.824;12.092;2023-10-19T02:39:15;94801.72;;;9.28;80.73
16094;BME280;8151;47.824;12.092;2023-10-19T02:41:47;94787.72;;;9.21;80.88
16094;BME280;8151;47.824;12.092;2023-10-19T02:44:18;94784.88;;;9.22;81.37
16094;BME280;8151;47.824;12.092;2023-10-19T02:46:51;94780.81;;;9.26;80.77
16094;BME280;8151;47.824;12.092;2023-10-19T02:49:21;94774.75;;;9.33;80.99
16094;BME280;8151;47.824;12.092;2023-10-19T02:51:51;94782.50;;;9.41;81.07
16094;BME280;8151;47.824;12.092;2023-10-19T02:54:22;94775.41;;;9.48;80.76
16094;BME280;8151;47.824;12.092;2023-10-19T02:56:54;94770.94;;;9.55;80.04
16094;BME280;8151;47.824;12.092;2023-10-19T02:59:27;94760.59;;;9.60;80.18
16094;BME280;8151;47.824;12.092;2023-10-19T03:01:58;94762.00;;;9.63;79.85
16094;BME280;8151;47.824;12.092;2023-10-19T03:04:29;94761.19;;;9.62;80.49
16094;BME280;8151;47.824;12.092;2023-10-19T03:06:58;94758.75;;;9.61;80.26
16094;BME280;8151;47.824;12.092;2023-10-19T03:09:28;94762.19;;;9.61;80.68
16094;BME280;8151;47.824;12.092;2023-10-19T03:11:58;94764.22;;;9.59;80.48
16094;BME280;8151;47.824;12.092;2023-10-19T03:14:31;94774.19;;;9.57;80.37
16094;BME280;8151;47.824;12.092;2023-10-19T03:16:59;94778.47;;;9.58;80.29
16094;BME280;8151;47.824;12.092;2023-10-19T03:19:28;94779.88;;;9.54;80.52
16094;BME280;8151;47.824;12.092;2023-10-19T03:21:56;94779.88;;;9.54;80.33
16094;BME280;8151;47.824;12.092;2023-10-19T03:24:27;94780.88;;;9.53;80.55
16094;BME280;8151;47.824;12.092;2023-10-19T03:27:05;94769.50;;;9.53;80.49
16094;BME280;8151;47.824;12.092;2023-10-19T03:29:40;94758.75;;;9.54;80.87
16094;BME280;8151;47.824;12.092;2023-10-19T03:32:09;94758.56;;;9.56;80.99
16094;BME280;8151;47.824;12.092;2023-10-19T03:34:37;94760.97;;;9.57;81.13
16094;BME280;8151;47.824;12.092;2023-10-19T03:37:06;94751.63;;;9.61;80.78
16094;BME280;8151;47.824;12.092;2023-10-19T03:39:39;94747.19;;;9.62;80.64
16094;BME280;8151;47.824;12.092;2023-10-19T03:42:09;94740.88;;;9.63;81.12
16094;BME280;8151;47.824;12.092;2023-10-19T03:44:41;94737.63;;;9.61;80.69
16094;BME280;8151;47.824;12.092;2023-10-19T03:47:18;94732.56;;;9.53;81.54
16094;BME280;8151;47.824;12.092;2023-10-19T03:49:48;94734.78;;;9.49;80.75
16094;BME280;8151;47.824;12.092;2023-10-19T03:52:18;94730.69;;;9.40;81.58
16094;BME280;8151;47.824;12.092;2023-10-19T03:54:49;94730.69;;;9.40;82.09
16094;BME280;8151;47.824;12.092;2023-10-19T03:57:19;94724.63;;;9.39;81.31
16094;BME280;8151;47.824;12.092;2023-10-19T03:59:51;94726.88;;;9.42;81.53
16094;BME280;8151;47.824;12.092;2023-10-19T04:02:21;94720.97;;;9.40;81.90
16094;BME280;8151;47.824;12.092;2023-10-19T04:04:50;94705.94;;;9.41;82.12
16094;BME280;8151;47.824;12.092;2023-10-19T04:07:19;94714.47;;;9.43;82.11
16094;BME280;8151;47.824;12.092;2023-10-19T04:09:51;94706.56;;;9.43;82.27
16094;BME280;8151;47.824;12.092;2023-10-19T04:12:28;94699.84;;;9.47;81.70
16094;BME280;8151;47.824;12.092;2023-10-19T04:14:59;94702.09;;;9.50;81.99
16094;BME280;8151;47.824;12.092;2023-10-19T04:17:36;94698.03;;;9.54;81.94
16094;BME280;8151;47.824;12.092;2023-10-19T04:20:07;94701.09;;;9.58;81.36
16094;BME280;8151;47.824;12.092;2023-10-19T04:22:53;94697.63;;;9.57;81.43
16094;BME280;8151;47.824;12.092;2023-10-19T04:25:22;94697.63;;;9.57;82.03
16094;BME280;8151;47.824;12.092;2023-10-19T04:27:54;94698.44;;;9.58;81.60
16094;BME280;8151;47.824;12.092;2023-10-19T04:30:24;94690.72;;;9.56;81.87
16094;BME280;8151;47.824;12.092;2023-10-19T04:33:04;94674.69;;;9.58;81.62
16094;BME280;8151;47.824;12.092;2023-10-19T04:35:36;94679.16;;;9.64;81.61
16094;BME280;8151;47.824;12.092;2023-10-19T04:38:08;94677.91;;;9.66;81.80
16094;BME280;8151;47.824;12.092;2023-10-19T04:40:37;94681.97;;;9.69;81.96
16094;BME280;8151;47.824;12.092;2023-10-19T04:43:07;94672.84;;;9.72;81.41
16094;BME280;8151;47.824;12.092;2023-10-19T04:45:39;94666.13;;;9.76;81.44
16094;BME280;8151;47.824;12.092;2023-10-19T04:48:07;94672.22;;;9.76;81.27
16094;BME280;8151;47.824;12.092;2023-10-19T04:50:37;94672.03;;;9.78;81.35
16094;BME280;8151;47.824;12.092;2023-10-19T04:53:12;94668.34;;;9.79;81.37
16094;BME280;8151;47.824;12.092;2023-10-19T04:55:40;94668.34;;;9.79;81.51
16094;BME280;8151;47.824;12.092;2023-10-19T04:58:10;94666.34;;;9.81;81.73
16094;BME280;8151;47.824;12.092;2023-10-19T05:00:39;94671.00;;;9.79;81.62
16094;BME280;8151;47.824;12.092;2023-10-19T05:03:08;94665.31;;;9.82;82.06
16094;BME280;8151;47.824;12.092;2023-10-19T05:05:36;94663.28;;;9.84;81.25
16094;BME280;8151;47.824;12.092;2023-10-19T05:08:06;94662.03;;;9.86;81.44
16094;BME280;8151;47.824;12.092;2023-10-19T05:10:34;94657.59;;;9.87;81.23
16094;BME280;8151;47.824;12.092;2023-10-19T05:13:03;94658.19;;;9.89;81.87
16094;BME280;8151;47.824;12.092;2023-10-19T05:15:33;94659.41;;;9.93;81.86
16094;BME280;8151;47.824;12.092;2023-10-19T05:18:02;94657.56;;;9.94;81.29
16094;BME280;8151;47.824;12.092;2023-10-19T05:20:31;94661.25;;;9.93;81.40
16094;BME280;8151;47.824;12.092;2023-10-19T05:23:03;94660.66;;;9.91;81.41
16094;BME280;8151;47.824;12.092;2023-10-19T05:25:32;94660.25;;;9.87;81.66
16094;BME280;8151;47.824;12.092;2023-10-19T05:28:01;94653.31;;;9.86;82.18
16094;BME280;8151;47.824;12.092;2023-10-19T05:30:29;94660.44;;;9.85;82.51
16094;BME280;8151;47.824;12.092;2023-10-19T05:33:00;94657.19;;;9.83;82.11
16094;BME280;8151;47.824;12.092;2023-10-19T05:35:30;94661.06;;;9.81;82.08
16094;BME280;8151;47.824;12.092;2023-10-19T05:38:02;94664.91;;;9.78;82.14
16094;BME280;8151;47.824;12.092;2023-10-19T05:40:31;94660.06;;;9.75;81.96
16094;BME280;8151;47.824;12.092;2023-10-19T05:42:59;94657.59;;;9.80;82.74
16094;BME280;8151;47.824;12.092;2023-10-19T05:45:28;94656.38;;;9.83;82.15
16094;BME280;8151;47.824;12.092;2023-10-19T05:47:57;94664.31;;;9.83;82.24
16094;BME280;8151;47.824;12.092;2023-10-19T05:50:27;94667.75;;;9.77;82.76
16094;BME280;8151;47.824;12.092;2023-10-19T05:52:55;94664.91;;;9.78;82.96
16094;BME280;8151;47.824;12.092;2023-10-19T05:55:24;94673.25;;;9.82;82.46
16094;BME280;8151;47.824;12.092;2023-10-19T05:57:55;94664.91;;;9.85;82.33
16094;BME280;8151;47.824;12.092;2023-10-19T06:00:23;94674.25;;;9.88;82.67
16094;BME280;8151;47.824;12.092;2023-10-19T06:02:53;94681.78;;;9.91;82.70
16094;BME280;8151;47.824;12.092;2023-10-19T06:05:22;94681.78;;;9.91;82.69
16094;BME280;8151;47.824;12.092;2023-10-19T06:07:52;94684.78;;;9.94;82.77
16094;BME280;8151;47.824;12.092;2023-10-19T06:10:21;94686.03;;;9.98;82.45
16094;BME280;8151;47.824;12.092;2023-10-19T06:12:51;94690.09;;;10.01;82.20
16094;BME280;8151;47.824;12.092;2023-10-19T06:15:21;94682.97;;;10.01;81.87
16094;BME280;8151;47.824;12.092;2023-10-19T06:18:00;94686.41;;;10.02;82.34
16094;BME280;8151;47.824;12.092;2023-10-19T06:20:30;94689.44;;;10.05;82.07
16094;BME280;8151;47.824;12.092;2023-10-19T06:23:02;94695.78;;;10.04;82.03
16094;BME280;8151;47.824;12.092;2023-10-19T06:25:33;94693.94;;;10.05;82.30
16094;BME280;8151;47.824;12.092;2023-10-19T06:28:03;94685.59;;;10.08;82.14
16094;BME280;8151;47.824;12.092;2023-10-19T06:30:32;94681.31;;;10.14;82.24
16094;BME280;8151;47.824;12.092;2023-10-19T06:33:03;94688.63;;;10.18;82.05
16094;BME280;8151;47.824;12.092;2023-10-19T06:35:33;94694.09;;;10.23;82.24
16094;BME280;8151;47.824;12.092;2023-10-19T06:38:05;94691.84;;;10.27;82.45
16094;BME280;8151;47.824;12.092;2023-10-19T06:40:36;94696.75;;;10.30;82.31
16094;BME280;8151;47.824;12.092;2023-10-19T06:43:05;94703.66;;;10.31;82.04
16094;BME280;8151;47.824;12.092;2023-10-19T06:45:33;94699.00;;;10.33;82.52
16094;BME280;8151;47.824;12.092;2023-10-19T06:48:02;94697.16;;;10.34;82.66
16094;BME280;8151;47.824;12.092;2023-10-19T06:50:31;94695.94;;;10.36;82.55
16094;BME280;8151;47.824;12.092;2023-10-19T06:53:02;94695.94;;;10.36;82.58
16094;BME280;8151;47.824;12.092;2023-10-19T06:55:34;94695.94;;;10.36;82.32
16094;BME280;8151;47.824;12.092;2023-10-19T06:58:02;94689.63;;;10.37;82.31
16094;BME280;8151;47.824;12.092;2023-10-19T07:00:31;94692.28;;;10.37;82.64
16094;BME280;8151;47.824;12.092;2023-10-19T07:03:01;94696.72;;;10.37;82.34
16094;BME280;8151;47.824;12.092;2023-10-19T07:05:30;94692.88;;;10.39;82.92
16094;BME280;8151;47.824;12.092;2023-10-19T07:08:00;94692.25;;;10.44;82.38
16094;BME280;8151;47.824;12.092;2023-10-19T07:10:29;94696.69;;;10.50;82.63
16094;BME280;8151;47.824;12.092;2023-10-19T07:12:59;94703.19;;;10.54;82.78
16094;BME280;8151;47.824;12.092;2023-10-19T07:15:27;94707.28;;;10.50;82.80
16094;BME280;8151;47.824;12.092;2023-10-19T07:17:57;94703.63;;;10.44;82.66
16094;BME280;8151;47.824;12.092;2023-10-19T07:20:26;94703.63;;;10.44;83.18
16094;BME280;8151;47.824;12.092;2023-10-19T07:22:57;94703.22;;;10.48;83.42
16094;BME280;8151;47.824;12.092;2023-10-19T07:25:27;94703.41;;;10.53;82.98
16094;BME280;8151;47.824;12.092;2023-10-19T07:27:56;94703.97;;;10.61;82.98
16094;BME280;8151;47.824;12.092;2023-10-19T07:30:28;94696.84;;;10.69;82.96
16094;BME280;8151;47.824;12.092;2023-10-19T07:32:57;94695.19;;;10.74;82.88
16094;BME280;8151;47.824;12.092;2023-10-19T07:35:27;94694.13;;;10.82;82.42
16094;BME280;8151;47.824;12.092;2023-10-19T07:38:01;94694.91;;;10.89;82.75
16094;BME280;8151;47.824;12.092;2023-10-19T07:40:31;94697.53;;;10.96;82.53
16094;BME280;8151;47.824;12.092;2023-10-19T07:42:59;94683.66;;;11.00;82.21
16094;BME280;8151;47.824;12.092;2023-10-19T07:45:30;94690.97;;;11.05;82.14
16094;BME280;8151;47.824;12.092;2023-10-19T07:47:59;94695.41;;;11.11;82.49
16094;BME280;8151;47.824;12.092;2023-10-19T07:50:34;94689.47;;;11.16;82.16
16094;BME280;8151;47.824;12.092;2023-10-19T07:53:03;94682.72;;;11.20;82.14
16094;BME280;8151;47.824;12.092;2023-10-19T07:55:32;94683.72;;;11.26;81.91
16094;BME280;8151;47.824;12.092;2023-10-19T07:58:01;94681.25;;;11.31;81.75
16094;BME280;8151;47.824;12.092;2023-10-19T08:00:32;94681.63;;;11.34;81.95
16094;BME280;8151;47.824;12.092;2023-10-19T08:03:03;94675.09;;;11.37;82.12
16094;BME280;8151;47.824;12.092;2023-10-19T08:05:32;94682.38;;;11.41;82.10
16094;BME280;8151;47.824;12.092;2023-10-19T08:08:02;94669.53;;;11.45;81.90
16094;BME280;8151;47.824;12.092;2023-10-19T08:10:32;94679.69;;;11.48;81.81
16094;BME280;8151;47.824;12.092;2023-10-19T08:13:02;94669.50;;;11.52;81.73
16094;BME280;8151;47.824;12.092;2023-10-19T08:15:32;94665.38;;;11.56;81.84
16094;BME280;8151;47.824;12.092;2023-10-19T08:18:00;94659.41;;;11.60;82.10
16094;BME280;8151;47.824;12.092;2023-10-19T08:20:29;94658.16;;;11.63;81.98
16094;BME280;8151;47.824;12.092;2023-10-19T08:23:00;94654.88;;;11.68;81.96
16094;BME280;8151;47.824;12.092;2023-10-19T08:25:30;94645.47;;;11.72;82.04
16094;BME280;8151;47.824;12.092;2023-10-19T08:28:18;94648.88;;;11.79;81.91
16094;BME280;8151;47.824;12.092;2023-10-19T08:30:48;94643.50;;;11.86;81.72
16094;BME280;8151;47.824;12.092;2023-10-19T08:33:25;94637.16;;;11.93;81.72
16094;BME280;8151;47.824;12.092;2023-10-19T08:35:54;94631.81;;;12.00;81.76
16094;BME280;8151;47.824;12.092;2023-10-19T08:38:23;94634.16;;;12.08;82.04
16094;BME280;8151;47.824;12.092;2023-10-19T08:40:53;94630.41;;;12.16;82.09
16094;BME280;8151;47.824;12.092;2023-10-19T08:43:22;94631.94;;;12.24;82.23
16094;BME280;8151;47.824;12.092;2023-10-19T08:45:53;94623.91;;;12.30;82.35
16094;BME280;8151;47.824;12.092;2023-10-19T08:48:23;94624.66;;;12.37;82.34
16094;BME280;8151;47.824;12.092;2023-10-19T08:50:52;94617.44;;;12.45;82.34
16094;BME280;8151;47.824;12.092;2023-10-19T08:53:24;94620.00;;;12.51;82.48
16094;BME280;8151;47.824;12.092;2023-10-19T08:55:52;94614.00;;;12.56;82.43
16094;BME280;8151;47.824;12.092;2023-10-19T08:58:23;94610.91;;;12.59;82.64
16094;BME280;8151;47.824;12.092;2023-10-19T09:00:53;94610.03;;;12.65;82.78
16094;BME280;8151;47.824;12.092;2023-10-19T09:03:23;94604.28;;;12.68;82.57
16094;BME280;8151;47.824;12.092;2023-10-19T09:05:53;94609.94;;;12.72;82.74
16094;BME280;8151;47.824;12.092;2023-10-19T09:08:24;94609.25;;;12.76;82.86
16094;BME280;8151;47.824;12.092;2023-10-19T09:10:52;94602.69;;;12.79;82.85
16094;BME280;8151;47.824;12.092;2023-10-19T09:13:22;94587.13;;;12.83;82.98
16094;BME280;8151;47.824;12.092;2023-10-19T09:15:53;94586.91;;;12.84;83.20
16094;BME280;8151;47.824;12.092;2023-10-19T09:18:24;94595.22;;;12.88;83.26
16094;BME280;8151;47.824;12.092;2023-10-19T09:20:57;94591.78;;;12.87;83.36
16094;BME280;8151;47.824;12.092;2023-10-19T09:23:35;94587.06;;;12.89;83.58
16094;BME280;8151;47.824;12.092;2023-10-19T09:26:05;94588.44;;;12.92;83.43
16094;BME280;8151;47.824;12.092;2023-10-19T09:28:35;94584.72;;;12.93;83.44
16094;BME280;8151;47.824;12.092;2023-10-19T09:31:06;94578.19;;;12.95;83.62
16094;BME280;8151;47.824;12.092;2023-10-19T09:33:40;94574.25;;;12.98;83.27
16094;BME280;8151;47.824;12.092;2023-10-19T09:36:10;94570.56;;;12.99;83.35
16094;BME280;8151;47.824;12.092;2023-10-19T09:38:46;94579.91;;;13.02;83.36
16094;BME280;8151;47.824;12.092;2023-10-19T09:41:17;94590.31;;;13.03;83.56
16094;BME280;8151;47.824;12.092;2023-10-19T09:43:47;94596.00;;;13.07;83.43
16094;BME280;8151;47.824;12.092;2023-10-19T09:46:24;94586.06;;;13.14;83.20
16094;BME280;8151;47.824;12.092;2023-10-19T09:48:56;94590.59;;;13.25;83.08
16094;BME280;8151;47.824;12.092;2023-10-19T09:51:24;94580.22;;;13.35;83.06
16094;BME280;8151;47.824;12.092;2023-10-19T09:53:59;94584.53;;;13.48;82.88
16094;BME280;8151;47.824;12.092;2023-10-19T09:56:35;94582.44;;;13.62;82.69
16094;BME280;8151;47.824;12.092;2023-10-19T09:59:05;94574.81;;;13.77;82.34
16094;BME280;8151;47.824;12.092;2023-10-19T10:02:07;94569.97;;;13.86;82.38
16094;BME280;8151;47.824;12.092;2023-10-19T10:04:39;94568.81;;;13.94;82.06
16094;BME280;8151;47.824;12.092;2023-10-19T10:07:08;94560.69;;;14.01;82.13
16094;BME280;8151;47.824;12.092;2023-10-19T10:09:39;94552.34;;;14.09;81.79
16094;BME280;8151;47.824;12.092;2023-10-19T10:12:18;94550.94;;;14.18;81.74
16094;BME280;8151;47.824;12.092;2023-10-19T10:14:58;94556.00;;;14.31;81.73
16094;BME280;8151;47.824;12.092;2023-10-19T10:17:33;94558.88;;;14.42;81.52
16094;BME280;8151;47.824;12.092;2023-10-19T10:20:30;94555.34;;;14.53;81.09
16094;BME280;8151;47.824;12.092;2023-10-19T10:23:18;94555.22;;;14.71;81.12
16094;BME280;8151;47.824;12.092;2023-10-19T10:25:49;94548.78;;;14.84;80.59
16094;BME280;8151;47.824;12.092;2023-10-19T10:28:21;94541.94;;;15.05;80.70
16094;BME280;8151;47.824;12.092;2023-10-19T10:31:10;94543.97;;;15.32;79.68
16094;BME280;8151;47.824;12.092;2023-10-19T10:33:44;94538.38;;;15.50;79.29
16094;BME280;8151;47.824;12.092;2023-10-19T10:36:17;94542.34;;;15.65;79.33
16094;BME280;8151;47.824;12.092;2023-10-19T10:38:46;94544.63;;;15.73;79.17
16094;BME280;8151;47.824;12.092;2023-10-19T10:41:25;94545.25;;;15.80;79.26
16094;BME280;8151;47.824;12.092;2023-10-19T10:43:56;94530.44;;;15.89;78.96
16094;BME280;8151;47.824;12.092;2023-10-19T10:46:26;94528.63;;;15.95;79.05
16094;BME280;8151;47.824;12.092;2023-10-19T10:48:57;94523.31;;;15.95;78.85
16094;BME280;8151;47.824;12.092;2023-10-19T10:51:27;94515.63;;;15.99;78.93
16094;BME280;8151;47.824;12.092;2023-10-19T10:53:57;94509.91;;;16.12;79.04
16094;BME280;8151;47.824;12.092;2023-10-19T10:56:26;94506.94;;;16.30;78.53
16094;BME280;8151;47.824;12.092;2023-10-19T10:58:55;94505.50;;;16.45;78.35
16094;BME280;8151;47.824;12.092;2023-10-19T11:01:31;94512.25;;;16.52;78.08
16094;BME280;8151;47.824;12.092;2023-10-19T11:04:09;94511.53;;;16.62;77.95
16094;BME280;8151;47.824;12.092;2023-10-19T11:06:47;94507.31;;;16.66;78.05
16094;BME280;8151;47.824;12.092;2023-10-19T11:09:16;94519.09;;;16.70;78.07
16094;BME280;8151;47.824;12.092;2023-10-19T11:11:46;94518.84;;;16.72;78.13
16094;BME280;8151;47.824;12.092;2023-10-19T11:14:16;94508.47;;;16.76;78.23
16094;BME280;8151;47.824;12.092;2023-10-19T11:16:44;94512.19;;;16.74;78.20
16094;BME280;8151;47.824;12.092;2023-10-19T11:19:14;94498.81;;;16.69;78.38
16094;BME280;8151;47.824;12.092;2023-10-19T11:21:53;94494.75;;;16.67;78.34
16094;BME280;8151;47.824;12.092;2023-10-19T11:24:27;94497.72;;;16.70;78.54
16094;BME280;8151;47.824;12.092;2023-10-19T11:26:59;94492.69;;;16.74;78.40
16094;BME280;8151;47.824;12.092;2023-10-19T11:29:28;94489.25;;;16.79;78.24
16094;BME280;8151;47.824;12.092;2023-10-19T11:31:57;94484.00;;;16.84;77.97
16094;BME280;8151;47.824;12.092;2023-10-19T11:34:28;94472.09;;;16.97;77.73
16094;BME280;8151;47.824;12.092;2023-10-19T11:36:58;94464.41;;;17.05;77.45
16094;BME280;8151;47.824;12.092;2023-10-19T11:39:27;94459.66;;;17.12;77.08
16094;BME280;8151;47.824;12.092;2023-10-19T11:41:56;94467.75;;;17.18;77.13
16094;BME280;8151;47.824;12.092;2023-10-19T11:44:25;94469.38;;;17.24;76.86
16094;BME280;8151;47.824;12.092;2023-10-19T11:46:53;94465.38;;;17.26;76.96
16094;BME280;8151;47.824;12.092;2023-10-19T11:49:22;94466.19;;;17.27;76.92
16094;BME280;8151;47.824;12.092;2023-10-19T11:51:54;94472.84;;;17.24;76.93
16094;BME280;8151;47.824;12.092;2023-10-19T11:54:24;94472.84;;;17.24;76.82
16094;BME280;8151;47.824;12.092;2023-10-19T11:56:53;94462.69;;;17.26;76.94
16094;BME280;8151;47.824;12.092;2023-10-19T11:59:22;94452.25;;;17.25;77.35
16094;BME280;8151;47.824;12.092;2023-10-19T12:01:50;94452.84;;;17.32;77.02
16094;BME280;8151;47.824;12.092;2023-10-19T12:04:19;94448.66;;;17.41;77.10
16094;BME280;8151;47.824;12.092;2023-10-19T12:06:48;94447.13;;;17.56;76.75
16094;BME280;8151;47.824;12.092;2023-10-19T12:09:17;94438.13;;;17.72;76.35
16094;BME280;8151;47.824;12.092;2023-10-19T12:11:51;94427.53;;;17.87;75.94
16094;BME280;8151;47.824;12.092;2023-10-19T12:14:21;94412.00;;;17.95;75.71
16094;BME280;8151;47.824;12.092;2023-10-19T12:16:50;94391.94;;;17.92;75.55
16094;BME280;8151;47.824;12.092;2023-10-19T12:19:18;94398.09;;;17.93;75.44
16094;BME280;8151;47.824;12.092;2023-10-19T12:21:47;94413.38;;;18.02;75.19
16094;BME280;8151;47.824;12.092;2023-10-19T12:24:18;94408.81;;;18.03;75.50
16094;BME280;8151;47.824;12.092;2023-10-19T12:26:48;94425.72;;;18.03;75.56
16094;BME280;8151;47.824;12.092;2023-10-19T12:29:17;94414.19;;;18.03;75.52
16094;BME280;8151;47.824;12.092;2023-10-19T12:31:48;94416.34;;;18.06;75.42
16094;BME280;8151;47.824;12.092;2023-10-19T12:34:17;94405.91;;;18.09;75.19
16094;BME280;8151;47.824;12.092;2023-10-19T12:36:45;94387.47;;;18.13;75.00
16094;BME280;8151;47.824;12.092;2023-10-19T12:39:18;94371.44;;;18.34;74.49
16094;BME280;8151;47.824;12.092;2023-10-19T12:42:00;94380.31;;;18.60;74.13
16094;BME280;8151;47.824;12.092;2023-10-19T12:44:30;94373.63;;;18.88;73.62
16094;BME280;8151;47.824;12.092;2023-10-19T12:47:07;94372.00;;;19.07;73.01
16094;BME280;8151;47.824;12.092;2023-10-19T12:49:38;94365.00;;;19.22;72.64
16094;BME280;8151;47.824;12.092;2023-10-19T12:52:06;94357.50;;;19.29;72.57
16094;BME280;8151;47.824;12.092;2023-10-19T12:54:37;94349.94;;;19.36;72.30
16094;BME280;8151;47.824;12.092;2023-10-19T12:57:06;94353.41;;;19.42;72.37
16094;BME280;8151;47.824;12.092;2023-10-19T12:59:36;94348.84;;;19.47;72.42
16094;BME280;8151;47.824;12.092;2023-10-19T13:02:06;94343.44;;;19.58;72.20
16094;BME280;8151;47.824;12.092;2023-10-19T13:04:36;94331.59;;;19.69;71.73
16094;BME280;8151;47.824;12.092;2023-10-19T13:07:05;94328.63;;;19.81;71.00
16094;BME280;8151;47.824;12.092;2023-10-19T13:09:36;94322.97;;;19.88;70.46
16094;BME280;8151;47.824;12.092;2023-10-19T13:12:05;94324.53;;;19.94;70.18
16094;BME280;8151;47.824;12.092;2023-10-19T13:14:35;94324.50;;;19.99;70.10
16094;BME280;8151;47.824;12.092;2023-10-19T13:17:03;94316.47;;;19.99;69.99
16094;BME280;8151;47.824;12.092;2023-10-19T13:19:32;94317.19;;;20.04;69.89
16094;BME280;8151;47.824;12.092;2023-10-19T13:22:03;94320.13;;;20.13;69.46
16094;BME280;8151;47.824;12.092;2023-10-19T13:24:36;94309.38;;;20.13;68.95
16094;BME280;8151;47.824;12.092;2023-10-19T13:27:09;94295.44;;;20.11;68.57